createdAt,value
2018-11-06T00:01:53.452Z,8.56
2018-11-06T00:05:28.221Z,8.54
2018-11-06T00:07:58.888Z,8.46
2018-11-06T00:10:31.396Z,8.44
2018-11-06T00:13:02.364Z,8.44
2018-11-06T00:15:33.278Z,8.42
2018-11-06T00:18:05.332Z,8.43
2018-11-06T00:20:36.727Z,8.42
2018-11-06T00:23:07.452Z,8.42
2018-11-06T00:25:38.101Z,8.41
2018-11-06T00:28:08.794Z,8.38
2018-11-06T00:30:40.103Z,8.36
2018-11-06T00:33:10.707Z,8.34
2018-11-06T00:35:41.414Z,8.34
2018-11-06T00:38:12.915Z,8.38
2018-11-06T00:40:43.556Z,8.33
2018-11-06T00:43:13.976Z,8.30
2018-11-06T00:45:44.569Z,8.27
2018-11-06T00:48:15.285Z,8.26
2018-11-06T00:50:45.923Z,8.26
2018-11-06T00:53:16.564Z,8.23
2018-11-06T00:55:47.220Z,8.17
2018-11-06T00:58:18.025Z,8.12
2018-11-06T01:00:48.599Z,8.08
2018-11-06T01:03:19.290Z,7.97
2018-11-06T01:05:50.895Z,7.89
2018-11-06T01:08:21.682Z,7.78
2018-11-06T01:10:52.367Z,7.70
2018-11-06T01:13:23.048Z,7.63
2018-11-06T01:15:53.577Z,7.59
2018-11-06T01:18:24.184Z,7.50
2018-11-06T01:20:54.829Z,7.48
2018-11-06T01:23:25.796Z,7.51
2018-11-06T01:25:56.382Z,7.58
2018-11-06T01:28:27.248Z,7.66
2018-11-06T01:30:59.160Z,7.70
2018-11-06T01:33:29.800Z,7.72
2018-11-06T01:36:00.553Z,7.73
2018-11-06T01:38:31.065Z,7.69
2018-11-06T01:41:01.788Z,7.70
2018-11-06T01:43:32.553Z,7.69
2018-11-06T01:46:02.997Z,7.69
2018-11-06T01:48:33.625Z,7.68
2018-11-06T01:51:04.325Z,7.69
2018-11-06T01:53:35.256Z,7.74
2018-11-06T01:56:05.884Z,7.75
2018-11-06T01:58:36.688Z,7.76
2018-11-06T02:01:07.379Z,7.77
2018-11-06T02:03:38.844Z,7.75
2018-11-06T02:06:10.053Z,7.77
2018-11-06T02:08:40.675Z,7.77
2018-11-06T02:11:11.436Z,7.68
2018-11-06T02:13:42.150Z,7.61
2018-11-06T02:16:12.831Z,7.47
2018-11-06T02:18:44.151Z,7.36
2018-11-06T02:21:16.184Z,7.28
2018-11-06T02:23:49.196Z,7.21
2018-11-06T02:26:20.095Z,7.22
2018-11-06T02:28:50.989Z,7.20
2018-11-06T02:31:22.369Z,7.20
2018-11-06T02:33:53.469Z,7.22
2018-11-06T02:36:24.720Z,7.31
2018-11-06T02:38:56.248Z,7.40
2018-11-06T02:41:27.231Z,7.46
2018-11-06T02:43:58.232Z,7.43
2018-11-06T02:46:29.967Z,7.38
2018-11-06T02:49:01.033Z,7.34
2018-11-06T02:51:32.059Z,7.36
2018-11-06T02:54:02.844Z,7.32
2018-11-06T02:56:33.523Z,7.28
2018-11-06T02:59:04.385Z,7.26
2018-11-06T03:01:34.982Z,7.25
2018-11-06T03:04:06.152Z,7.31
2018-11-06T03:06:36.765Z,7.34
2018-11-06T03:09:08.362Z,7.35
2018-11-06T03:11:39.040Z,7.36
2018-11-06T03:14:09.697Z,7.34
2018-11-06T03:16:40.438Z,7.34
2018-11-06T03:19:11.273Z,7.35
2018-11-06T03:21:41.871Z,7.39
2018-11-06T03:24:12.624Z,7.40
2018-11-06T03:26:43.242Z,7.37
2018-11-06T03:29:14.094Z,7.31
2018-11-06T03:31:45.128Z,7.30
2018-11-06T03:34:15.772Z,7.26
2018-11-06T03:36:46.699Z,7.30
2018-11-06T03:39:17.320Z,7.33
2018-11-06T03:41:47.958Z,7.34
2018-11-06T03:44:18.668Z,7.29
2018-11-06T03:46:49.699Z,7.22
2018-11-06T03:49:20.352Z,7.17
2018-11-06T03:51:51.019Z,7.16
2018-11-06T03:54:21.912Z,7.17
2018-11-06T03:56:52.484Z,7.13
2018-11-06T03:59:24.201Z,7.06
2018-11-06T04:01:55.155Z,7.02
2018-11-06T04:04:25.868Z,6.98
2018-11-06T04:06:56.522Z,6.97
2018-11-06T04:09:27.132Z,6.99
2018-11-06T04:11:57.879Z,6.92
2018-11-06T04:14:28.512Z,6.94
2018-11-06T04:16:59.160Z,6.95
2018-11-06T04:19:29.864Z,6.97
2018-11-06T04:22:01.359Z,6.99
2018-11-06T04:24:31.939Z,7.00
2018-11-06T04:27:02.708Z,7.03
2018-11-06T04:29:33.312Z,7.11
2018-11-06T04:32:03.959Z,7.15
2018-11-06T04:34:35.084Z,7.19
2018-11-06T04:37:05.935Z,7.21
2018-11-06T04:39:36.851Z,7.21
2018-11-06T04:42:07.924Z,7.25
2018-11-06T04:44:38.942Z,7.20
2018-11-06T04:47:09.700Z,7.17
2018-11-06T04:49:40.676Z,7.18
2018-11-06T04:52:11.879Z,7.23
2018-11-06T04:54:45.197Z,7.28
2018-11-06T04:57:16.313Z,7.29
2018-11-06T04:59:47.150Z,7.31
2018-11-06T05:02:18.960Z,7.23
2018-11-06T05:04:52.548Z,7.14
2018-11-06T05:07:23.223Z,7.03
2018-11-06T05:09:54.028Z,6.96
2018-11-06T05:12:25.013Z,6.99
2018-11-06T05:14:55.744Z,7.05
2018-11-06T05:17:27.124Z,7.12
2018-11-06T05:19:57.715Z,7.15
2018-11-06T05:22:28.524Z,7.11
2018-11-06T05:24:59.120Z,7.08
2018-11-06T05:27:29.849Z,7.07
2018-11-06T05:30:00.973Z,7.11
2018-11-06T05:32:31.551Z,7.10
2018-11-06T05:35:02.203Z,7.10
2018-11-06T05:37:33.097Z,6.91
2018-11-06T05:40:20.842Z,6.75
2018-11-06T05:42:53.094Z,6.56
2018-11-06T05:45:24.970Z,6.46
2018-11-06T05:47:56.036Z,6.44
2018-11-06T05:50:27.097Z,6.45
2018-11-06T05:52:58.975Z,6.46
2018-11-06T05:55:29.940Z,6.48
2018-11-06T05:58:00.807Z,6.52
2018-11-06T06:00:31.877Z,6.55
2018-11-06T06:03:03.622Z,6.56
2018-11-06T06:05:35.893Z,6.58
2018-11-06T06:08:07.908Z,6.54
2018-11-06T06:10:39.676Z,6.58
2018-11-06T06:13:10.546Z,6.56
2018-11-06T06:15:41.639Z,6.53
2018-11-06T06:18:12.703Z,6.49
2018-11-06T06:20:43.762Z,6.46
2018-11-06T06:23:15.323Z,6.48
2018-11-06T06:25:46.253Z,6.51
2018-11-06T06:28:17.484Z,6.54
2018-11-06T06:30:48.228Z,6.58
2018-11-06T06:33:19.103Z,6.61
2018-11-06T06:35:49.689Z,6.70
2018-11-06T06:38:21.076Z,6.82
2018-11-06T06:40:52.240Z,6.98
2018-11-06T06:43:23.320Z,7.12
2018-11-06T06:45:53.989Z,7.22
2018-11-06T06:48:24.592Z,7.28
2018-11-06T06:50:55.179Z,7.33
2018-11-06T06:53:26.395Z,7.41
2018-11-06T06:55:57.225Z,7.46
2018-11-06T06:58:28.157Z,7.50
2018-11-06T07:00:58.882Z,7.56
2018-11-06T07:03:30.295Z,7.60
2018-11-06T07:06:02.141Z,7.71
2018-11-06T07:08:33.098Z,7.83
2018-11-06T07:11:05.331Z,7.96
2018-11-06T07:13:37.145Z,8.10
2018-11-06T07:16:10.333Z,8.21
2018-11-06T07:18:46.255Z,8.35
2018-11-06T07:21:18.161Z,8.49
2018-11-06T07:23:48.764Z,8.67
2018-11-06T07:26:19.399Z,8.88
2018-11-06T07:28:54.899Z,9.12
2018-11-06T07:31:26.033Z,9.34
2018-11-06T07:33:56.607Z,9.41
2018-11-06T07:36:27.244Z,9.41
2018-11-06T07:38:59.421Z,9.46
2018-11-06T07:41:30.188Z,9.55
2018-11-06T07:44:01.626Z,9.59
2018-11-06T07:46:33.056Z,9.67
2018-11-06T07:49:03.712Z,9.76
2018-11-06T07:51:34.887Z,9.91
2018-11-06T07:54:05.393Z,10.14
2018-11-06T07:56:36.099Z,10.29
2018-11-06T07:59:07.500Z,10.49
2018-11-06T08:01:38.192Z,10.72
2018-11-06T08:04:08.970Z,10.87
2018-11-06T08:06:44.079Z,11.03
2018-11-06T08:09:16.111Z,11.24
2018-11-06T08:11:46.968Z,11.37
2018-11-06T08:14:17.797Z,11.44
2018-11-06T08:16:49.169Z,11.47
2018-11-06T08:19:20.089Z,11.63
2018-11-06T08:21:50.959Z,11.77
2018-11-06T08:24:28.595Z,11.94
2018-11-06T08:27:00.293Z,12.13
2018-11-06T08:29:30.924Z,12.34
2018-11-06T08:32:02.187Z,12.55
2018-11-06T08:34:32.559Z,12.71
2018-11-06T08:37:03.645Z,12.82
2018-11-06T08:39:34.531Z,13.04
2018-11-06T08:42:06.570Z,13.19
2018-11-06T08:44:37.592Z,13.34
2018-11-06T08:47:08.693Z,13.45
2018-11-06T08:49:39.343Z,13.60
2018-11-06T08:52:10.031Z,13.78
2018-11-06T08:54:41.183Z,13.93
2018-11-06T08:57:12.032Z,13.98
2018-11-06T08:59:43.840Z,14.10
2018-11-06T09:02:14.641Z,14.20
2018-11-06T09:04:45.305Z,14.18
2018-11-06T09:07:16.004Z,14.35
2018-11-06T09:09:49.156Z,14.57
2018-11-06T09:12:20.436Z,14.61
2018-11-06T09:14:51.081Z,14.61
2018-11-06T09:17:21.742Z,14.74
2018-11-06T09:19:52.462Z,14.62
2018-11-06T09:22:23.832Z,14.60
2018-11-06T09:24:57.852Z,14.79
2018-11-06T09:27:29.112Z,14.72
2018-11-06T09:30:03.967Z,14.64
2018-11-06T09:32:35.219Z,14.75
2018-11-06T09:35:06.931Z,14.73
2018-11-06T09:37:42.358Z,14.76
2018-11-06T09:40:15.743Z,14.88
2018-11-06T09:42:46.668Z,14.92
2018-11-06T09:45:17.529Z,14.96
2018-11-06T09:47:48.539Z,14.98
2018-11-06T09:50:19.895Z,15.07
2018-11-06T09:52:50.699Z,15.20
2018-11-06T09:55:22.003Z,15.23
2018-11-06T09:57:52.855Z,15.27
2018-11-06T10:00:24.486Z,15.29
2018-11-06T10:02:55.196Z,15.35
2018-11-06T10:05:26.721Z,15.37
2018-11-06T10:07:57.530Z,15.46
2018-11-06T10:10:28.404Z,15.55
2018-11-06T10:12:59.229Z,15.59
2018-11-06T10:15:29.862Z,15.63
2018-11-06T10:18:00.684Z,15.70
2018-11-06T10:20:31.496Z,15.78
2018-11-06T10:23:02.323Z,15.87
2018-11-06T10:25:33.467Z,15.97
2018-11-06T10:28:04.176Z,16.11
2018-11-06T10:30:35.775Z,16.21
2018-11-06T10:33:07.753Z,16.27
2018-11-06T10:35:39.776Z,16.31
2018-11-06T10:38:10.930Z,16.30
2018-11-06T10:40:43.098Z,16.35
2018-11-06T10:43:14.044Z,16.38
2018-11-06T10:45:45.514Z,16.43
2018-11-06T10:48:17.947Z,16.46
2018-11-06T10:50:48.624Z,16.49
2018-11-06T10:53:19.232Z,16.48
2018-11-06T10:55:49.882Z,16.52
2018-11-06T10:58:21.028Z,16.58
2018-11-06T11:00:57.044Z,16.64
2018-11-06T11:04:32.228Z,16.67
2018-11-06T11:07:02.956Z,16.77
2018-11-06T11:09:33.675Z,16.79
2018-11-06T11:12:04.270Z,16.82
2018-11-06T11:14:34.867Z,16.90
2018-11-06T11:17:06.564Z,16.96
2018-11-06T11:19:37.325Z,17.02
2018-11-06T11:22:08.167Z,17.08
2018-11-06T11:24:38.865Z,17.14
2018-11-06T11:27:10.140Z,17.21
2018-11-06T11:29:40.976Z,17.29
2018-11-06T11:32:11.549Z,17.36
2018-11-06T11:34:44.024Z,17.45
2018-11-06T11:37:14.807Z,17.52
2018-11-06T11:39:46.738Z,17.61
2018-11-06T11:42:18.457Z,17.60
2018-11-06T11:44:49.530Z,17.63
2018-11-06T11:47:20.785Z,17.64
2018-11-06T11:49:53.517Z,17.69
2018-11-06T11:52:25.240Z,17.73
2018-11-06T11:54:56.628Z,17.76
2018-11-06T11:57:28.467Z,17.76
2018-11-06T12:00:01.109Z,17.77
2018-11-06T12:02:31.835Z,17.85
2018-11-06T12:05:02.722Z,17.89
2018-11-06T12:07:33.409Z,17.94
2018-11-06T12:10:04.068Z,18.03
2018-11-06T12:12:34.933Z,18.10
2018-11-06T12:15:08.055Z,18.12
2018-11-06T12:17:38.800Z,18.12
2018-11-06T12:20:09.612Z,18.16
2018-11-06T12:22:40.555Z,18.25
2018-11-06T12:25:12.113Z,18.30
2018-11-06T12:27:43.073Z,18.34
2018-11-06T12:30:15.574Z,18.39
2018-11-06T12:32:46.247Z,18.47
2018-11-06T12:35:17.044Z,18.50
2018-11-06T12:37:47.612Z,18.48
2018-11-06T12:40:18.548Z,18.47
2018-11-06T12:42:49.158Z,18.49
2018-11-06T12:45:20.063Z,18.54
2018-11-06T12:47:50.926Z,18.54
2018-11-06T12:50:21.519Z,18.59
2018-11-06T12:52:52.374Z,18.66
2018-11-06T12:55:22.984Z,18.69
2018-11-06T12:57:53.666Z,18.74
2018-11-06T13:00:24.385Z,18.76
2018-11-06T13:02:55.012Z,18.78
2018-11-06T13:05:25.773Z,18.83
2018-11-06T13:07:57.093Z,18.86
2018-11-06T13:10:27.711Z,18.88
2018-11-06T13:12:58.139Z,18.91
2018-11-06T13:15:28.913Z,18.94
2018-11-06T13:18:00.514Z,18.96
2018-11-06T13:20:33.099Z,18.98
2018-11-06T13:23:06.867Z,18.99
2018-11-06T13:25:38.853Z,19.01
2018-11-06T13:28:10.017Z,19.02
2018-11-06T13:30:42.691Z,19.02
2018-11-06T13:33:14.155Z,19.01
2018-11-06T13:35:44.955Z,19.04
2018-11-06T13:38:19.255Z,19.07
2018-11-06T13:40:50.012Z,19.07
2018-11-06T13:43:20.639Z,19.03
2018-11-06T13:45:51.615Z,19.02
2018-11-06T13:48:22.120Z,19.02
2018-11-06T13:50:52.808Z,18.98
2018-11-06T13:53:23.487Z,18.95
2018-11-06T13:55:54.119Z,18.91
2018-11-06T13:58:25.556Z,18.94
2018-11-06T14:00:57.033Z,18.91
2018-11-06T14:03:27.855Z,18.90
2018-11-06T14:05:59.152Z,18.88
2018-11-06T14:08:30.498Z,18.89
2018-11-06T14:11:01.189Z,18.88
2018-11-06T14:13:31.939Z,18.87
2018-11-06T14:16:03.615Z,18.83
2018-11-06T14:18:34.883Z,18.81
2018-11-06T14:21:05.757Z,18.75
2018-11-06T14:23:37.987Z,18.72
2018-11-06T14:26:08.982Z,18.71
2018-11-06T14:28:39.752Z,18.64
2018-11-06T14:33:40.047Z,18.56
2018-11-06T14:38:41.407Z,18.49
2018-11-06T14:41:12.444Z,18.42
2018-11-06T14:43:45.760Z,18.37
2018-11-06T14:46:17.127Z,18.30
2018-11-06T14:48:48.769Z,18.23
2018-11-06T14:51:22.557Z,18.19
2018-11-06T14:53:54.215Z,18.13
2018-11-06T14:56:25.378Z,18.04
2018-11-06T14:58:57.518Z,18.01
2018-11-06T15:01:28.389Z,17.97
2018-11-06T15:04:01.048Z,17.88
2018-11-06T15:06:32.858Z,17.82
2018-11-06T15:09:04.988Z,17.78
2018-11-06T15:11:38.529Z,17.72
2018-11-06T15:14:09.416Z,17.66
2018-11-06T15:16:40.047Z,17.61
2018-11-06T15:19:10.851Z,17.54
2018-11-06T15:21:41.815Z,17.49
2018-11-06T15:24:12.576Z,17.44
2018-11-06T15:26:43.362Z,17.40
2018-11-06T15:29:14.077Z,17.38
2018-11-06T15:31:44.816Z,17.32
2018-11-06T15:34:15.555Z,17.28
2018-11-06T15:36:46.284Z,17.20
2018-11-06T15:39:16.955Z,17.17
2018-11-06T15:41:48.252Z,17.13
2018-11-06T15:44:19.207Z,17.07
2018-11-06T15:46:50.014Z,17.03
2018-11-06T15:49:20.657Z,16.99
2018-11-06T15:51:51.407Z,16.95
2018-11-06T15:54:22.124Z,16.94
2018-11-06T15:56:52.970Z,16.90
2018-11-06T15:59:23.548Z,16.87
2018-11-06T16:01:54.456Z,16.85
2018-11-06T16:04:27.249Z,16.81
2018-11-06T16:06:58.394Z,16.75
2018-11-06T16:09:33.935Z,16.70
2018-11-06T16:12:05.065Z,16.63
2018-11-06T16:14:38.388Z,16.60
2018-11-06T16:17:10.632Z,16.58
2018-11-06T16:19:42.246Z,16.55
2018-11-06T16:22:13.008Z,16.51
2018-11-06T16:24:45.185Z,16.46
2018-11-06T16:27:15.877Z,16.44
2018-11-06T16:29:46.609Z,16.38
2018-11-06T16:32:17.663Z,16.35
2018-11-06T16:34:48.260Z,16.28
2018-11-06T16:37:19.320Z,16.17
2018-11-06T16:39:50.060Z,16.12
2018-11-06T16:42:21.234Z,16.11
2018-11-06T16:44:51.955Z,15.93
2018-11-06T16:47:22.904Z,15.69
2018-11-06T16:49:53.652Z,15.58
2018-11-06T16:52:24.972Z,15.39
2018-11-06T16:54:55.695Z,15.22
2018-11-06T16:57:26.540Z,15.09
2018-11-06T16:59:57.388Z,14.98
2018-11-06T17:02:28.373Z,14.86
2018-11-06T17:04:58.993Z,14.72
2018-11-06T17:07:30.590Z,14.60
2018-11-06T17:10:03.166Z,14.39
2018-11-06T17:12:34.015Z,14.27
2018-11-06T17:15:05.267Z,14.21
2018-11-06T17:17:35.880Z,14.17
2018-11-06T17:20:08.753Z,14.15
2018-11-06T17:22:40.529Z,14.11
2018-11-06T17:25:13.721Z,14.07
2018-11-06T17:27:46.325Z,14.05
2018-11-06T17:30:18.083Z,14.00
2018-11-06T17:32:49.324Z,13.95
2018-11-06T17:35:21.842Z,13.92
2018-11-06T17:37:53.196Z,13.88
2018-11-06T17:40:24.659Z,13.84
2018-11-06T17:42:55.307Z,13.81
2018-11-06T17:45:25.988Z,13.74
2018-11-06T17:47:56.780Z,13.70
2018-11-06T17:50:27.419Z,13.61
2018-11-06T17:52:58.260Z,13.58
2018-11-06T17:55:28.970Z,13.57
2018-11-06T17:57:59.732Z,13.56
2018-11-06T18:00:30.351Z,13.48
2018-11-06T18:03:01.096Z,13.27
2018-11-06T18:05:34.772Z,13.19
2018-11-06T18:08:06.041Z,13.02
2018-11-06T18:10:36.873Z,12.95
2018-11-06T18:13:07.785Z,12.94
2018-11-06T18:15:38.512Z,12.94
2018-11-06T18:39:22.423Z,12.60
2018-11-06T18:44:52.138Z,12.54
2018-11-06T18:50:38.749Z,12.46
2018-11-06T19:23:12.153Z,11.86
2018-11-06T19:56:05.348Z,11.49
2018-11-06T19:58:42.435Z,11.50
2018-11-06T20:09:05.296Z,11.39
2018-11-06T20:11:39.306Z,11.41
2018-11-06T20:24:37.039Z,11.68
2018-11-06T20:27:08.973Z,11.72
2018-11-06T20:32:22.631Z,11.76
2018-11-06T20:40:28.159Z,11.73
2018-11-06T20:42:58.973Z,11.68
2018-11-06T20:55:59.160Z,11.48
2018-11-06T20:58:32.132Z,11.43
2018-11-06T21:11:40.706Z,11.11
2018-11-06T21:14:14.214Z,11.04
2018-11-06T21:19:22.434Z,11.03
2018-11-06T21:21:56.013Z,11.00
2018-11-06T21:29:42.575Z,10.78
2018-11-06T21:32:13.513Z,10.75
2018-11-06T21:45:39.907Z,10.68
2018-11-06T21:50:48.434Z,10.62
2018-11-06T21:53:19.140Z,10.58
2018-11-06T21:58:26.737Z,10.58
2018-11-06T22:00:57.584Z,10.56
2018-11-06T22:06:12.879Z,10.56
2018-11-06T22:08:43.663Z,10.54
2018-11-06T22:13:49.816Z,10.43
2018-11-06T22:18:58.593Z,10.28
2018-11-06T22:21:33.930Z,10.32
2018-11-06T22:24:05.229Z,10.27
2018-11-06T22:26:36.123Z,10.31
2018-11-06T22:29:08.182Z,10.24
2018-11-06T22:31:39.122Z,10.26
2018-11-06T22:34:11.386Z,10.26
2018-11-06T22:36:42.229Z,10.29
2018-11-06T22:39:13.192Z,10.29
2018-11-06T22:41:43.832Z,10.24
2018-11-06T22:44:14.467Z,10.22
2018-11-06T22:46:49.363Z,10.18
2018-11-06T22:49:21.092Z,10.10
2018-11-06T22:51:51.881Z,10.03
2018-11-06T22:54:23.027Z,9.94
2018-11-06T22:56:55.504Z,9.89
2018-11-06T22:59:26.176Z,9.83
2018-11-06T23:01:57.015Z,9.77
2018-11-06T23:04:28.107Z,9.76
2018-11-06T23:06:58.884Z,9.73
2018-11-06T23:09:29.708Z,9.75
2018-11-06T23:12:00.340Z,9.72
2018-11-06T23:14:31.164Z,9.72
2018-11-06T23:17:02.061Z,9.70
2018-11-06T23:19:32.808Z,9.72
2018-11-06T23:22:03.446Z,9.67
2018-11-06T23:24:34.180Z,9.67
2018-11-06T23:27:04.824Z,9.63
2018-11-06T23:29:35.463Z,9.62
2018-11-06T23:32:07.071Z,9.57
2018-11-06T23:34:37.917Z,9.63
2018-11-06T23:37:08.712Z,9.63
2018-11-06T23:39:40.166Z,9.61
2018-11-06T23:42:10.846Z,9.60
2018-11-06T23:44:41.701Z,9.57
2018-11-06T23:47:12.817Z,9.53
2018-11-06T23:49:45.174Z,9.53
2018-11-06T23:52:16.852Z,9.49
2018-11-06T23:54:48.692Z,9.52
2018-11-06T23:57:20.264Z,9.50
2018-11-06T23:59:51.656Z,9.47
